sensor_id;sensor_type;location;lat;lon;timestamp;P1;durP1;ratioP1;P2;durP2;ratioP2
20093;SDS011;10206;48.012;10.030;2022-10-16T00:00:37;9.20;;;2.90;;
20093;SDS011;10206;48.012;10.030;2022-10-16T00:03:05;5.00;;;3.10;;
20093;SDS011;10206;48.012;10.030;2022-10-16T00:05:32;6.07;;;3.00;;
20093;SDS011;10206;48.012;10.030;2022-10-16T00:08:02;4.10;;;2.80;;
20093;SDS011;10206;48.012;10.030;2022-10-16T00:10:29;4.67;;;2.67;;
20093;SDS011;10206;48.012;10.030;2022-10-16T00:12:55;5.37;;;2.50;;
20093;SDS011;10206;48.012;10.030;2022-10-16T00:15:21;3.30;;;2.57;;
20093;SDS011;10206;48.012;10.030;2022-10-16T00:17:47;7.33;;;2.93;;
20093;SDS011;10206;48.012;10.030;2022-10-16T00:20:13;5.43;;;2.50;;
20093;SDS011;10206;48.012;10.030;2022-10-16T00:22:39;6.83;;;2.60;;
20093;SDS011;10206;48.012;10.030;2022-10-16T00:25:05;5.40;;;2.43;;
20093;SDS011;10206;48.012;10.030;2022-10-16T00:27:32;3.73;;;2.20;;
20093;SDS011;10206;48.012;10.030;2022-10-16T00:29:58;2.30;;;2.10;;
20093;SDS011;10206;48.012;10.030;2022-10-16T00:32:25;3.80;;;2.07;;
20093;SDS011;10206;48.012;10.030;2022-10-16T00:34:51;3.30;;;2.10;;
20093;SDS011;10206;48.012;10.030;2022-10-16T00:37:19;3.47;;;2.50;;
20093;SDS011;10206;48.012;10.030;2022-10-16T00:39:45;3.33;;;2.40;;
20093;SDS011;10206;48.012;10.030;2022-10-16T00:42:15;4.00;;;2.50;;
20093;SDS011;10206;48.012;10.030;2022-10-16T00:47:34;9.87;;;2.60;;
20093;SDS011;10206;48.012;10.030;2022-10-16T00:50:16;3.20;;;2.40;;
20093;SDS011;10206;48.012;10.030;2022-10-16T00:52:55;5.17;;;3.00;;
20093;SDS011;10206;48.012;10.030;2022-10-16T00:55:22;4.27;;;2.37;;
20093;SDS011;10206;48.012;10.030;2022-10-16T00:57:50;3.93;;;2.23;;
20093;SDS011;10206;48.012;10.030;2022-10-16T01:00:18;4.37;;;2.30;;
20093;SDS011;10206;48.012;10.030;2022-10-16T01:02:53;5.03;;;2.30;;
20093;SDS011;10206;48.012;10.030;2022-10-16T01:05:22;2.80;;;2.23;;
20093;SDS011;10206;48.012;10.030;2022-10-16T01:08:17;6.63;;;2.10;;
20093;SDS011;10206;48.012;10.030;2022-10-16T01:10:54;3.73;;;2.13;;
20093;SDS011;10206;48.012;10.030;2022-10-16T01:13:25;6.40;;;2.23;;
20093;SDS011;10206;48.012;10.030;2022-10-16T01:21:06;3.43;;;1.90;;
20093;SDS011;10206;48.012;10.030;2022-10-16T01:24:17;2.87;;;2.17;;
20093;SDS011;10206;48.012;10.030;2022-10-16T01:31:34;5.87;;;2.10;;
20093;SDS011;10206;48.012;10.030;2022-10-16T01:34:04;2.50;;;1.90;;
20093;SDS011;10206;48.012;10.030;2022-10-16T01:36:41;6.30;;;2.00;;
20093;SDS011;10206;48.012;10.030;2022-10-16T01:39:24;5.23;;;2.47;;
20093;SDS011;10206;48.012;10.030;2022-10-16T01:41:58;3.10;;;2.17;;
20093;SDS011;10206;48.012;10.030;2022-10-16T01:44:31;2.43;;;2.10;;
20093;SDS011;10206;48.012;10.030;2022-10-16T01:46:59;4.20;;;2.27;;
20093;SDS011;10206;48.012;10.030;2022-10-16T01:49:26;3.33;;;2.10;;
20093;SDS011;10206;48.012;10.030;2022-10-16T01:51:56;1.80;;;1.70;;
20093;SDS011;10206;48.012;10.030;2022-10-16T01:54:28;5.13;;;2.40;;
20093;SDS011;10206;48.012;10.030;2022-10-16T01:56:58;4.97;;;2.27;;
20093;SDS011;10206;48.012;10.030;2022-10-16T01:59:26;3.73;;;2.20;;
20093;SDS011;10206;48.012;10.030;2022-10-16T02:01:56;5.60;;;1.90;;
20093;SDS011;10206;48.012;10.030;2022-10-16T02:04:40;3.17;;;2.20;;
20093;SDS011;10206;48.012;10.030;2022-10-16T02:07:14;5.40;;;2.40;;
20093;SDS011;10206;48.012;10.030;2022-10-16T02:09:41;5.93;;;2.30;;
20093;SDS011;10206;48.012;10.030;2022-10-16T02:12:29;5.07;;;2.30;;
20093;SDS011;10206;48.012;10.030;2022-10-16T02:14:56;3.23;;;2.00;;
20093;SDS011;10206;48.012;10.030;2022-10-16T02:17:22;3.40;;;2.13;;
20093;SDS011;10206;48.012;10.030;2022-10-16T02:19:49;2.73;;;1.90;;
20093;SDS011;10206;48.012;10.030;2022-10-16T02:22:21;3.70;;;2.10;;
20093;SDS011;10206;48.012;10.030;2022-10-16T02:24:54;3.50;;;2.10;;
20093;SDS011;10206;48.012;10.030;2022-10-16T02:27:27;2.57;;;2.20;;
20093;SDS011;10206;48.012;10.030;2022-10-16T02:30:48;5.37;;;2.07;;
20093;SDS011;10206;48.012;10.030;2022-10-16T02:32:57;3.43;;;2.13;;
20093;SDS011;10206;48.012;10.030;2022-10-16T02:35:26;5.30;;;2.27;;
20093;SDS011;10206;48.012;10.030;2022-10-16T02:37:53;3.47;;;2.00;;
20093;SDS011;10206;48.012;10.030;2022-10-16T02:40:21;3.60;;;1.87;;
20093;SDS011;10206;48.012;10.030;2022-10-16T02:42:49;3.83;;;2.07;;
20093;SDS011;10206;48.012;10.030;2022-10-16T02:45:17;3.63;;;2.10;;
20093;SDS011;10206;48.012;10.030;2022-10-16T02:47:44;4.53;;;2.00;;
20093;SDS011;10206;48.012;10.030;2022-10-16T02:50:10;3.03;;;1.90;;
20093;SDS011;10206;48.012;10.030;2022-10-16T02:52:36;2.37;;;2.10;;
20093;SDS011;10206;48.012;10.030;2022-10-16T02:55:02;5.83;;;2.23;;
20093;SDS011;10206;48.012;10.030;2022-10-16T02:57:29;4.10;;;1.93;;
20093;SDS011;10206;48.012;10.030;2022-10-16T02:59:56;7.27;;;2.10;;
20093;SDS011;10206;48.012;10.030;2022-10-16T03:02:22;5.90;;;2.13;;
20093;SDS011;10206;48.012;10.030;2022-10-16T03:04:49;4.27;;;2.60;;
20093;SDS011;10206;48.012;10.030;2022-10-16T03:07:15;3.57;;;2.10;;
20093;SDS011;10206;48.012;10.030;2022-10-16T03:09:41;2.33;;;2.13;;
20093;SDS011;10206;48.012;10.030;2022-10-16T03:12:07;9.80;;;2.30;;
20093;SDS011;10206;48.012;10.030;2022-10-16T03:14:33;3.53;;;2.03;;
20093;SDS011;10206;48.012;10.030;2022-10-16T03:16:59;2.20;;;2.00;;
20093;SDS011;10206;48.012;10.030;2022-10-16T03:19:25;2.70;;;1.90;;
20093;SDS011;10206;48.012;10.030;2022-10-16T03:21:52;3.03;;;2.07;;
20093;SDS011;10206;48.012;10.030;2022-10-16T03:24:18;4.97;;;2.30;;
20093;SDS011;10206;48.012;10.030;2022-10-16T03:26:44;3.60;;;2.07;;
20093;SDS011;10206;48.012;10.030;2022-10-16T03:29:10;4.17;;;2.27;;
20093;SDS011;10206;48.012;10.030;2022-10-16T03:31:36;2.83;;;2.07;;
20093;SDS011;10206;48.012;10.030;2022-10-16T03:34:02;2.13;;;1.93;;
20093;SDS011;10206;48.012;10.030;2022-10-16T03:36:28;3.30;;;2.20;;
20093;SDS011;10206;48.012;10.030;2022-10-16T03:38:54;4.00;;;1.90;;
20093;SDS011;10206;48.012;10.030;2022-10-16T03:41:20;3.20;;;2.00;;
20093;SDS011;10206;48.012;10.030;2022-10-16T03:43:46;4.43;;;1.97;;
20093;SDS011;10206;48.012;10.030;2022-10-16T03:46:12;3.33;;;2.00;;
20093;SDS011;10206;48.012;10.030;2022-10-16T03:48:39;3.87;;;2.07;;
20093;SDS011;10206;48.012;10.030;2022-10-16T03:51:05;6.03;;;2.00;;
20093;SDS011;10206;48.012;10.030;2022-10-16T03:53:31;3.80;;;1.70;;
20093;SDS011;10206;48.012;10.030;2022-10-16T03:55:57;3.97;;;2.07;;
20093;SDS011;10206;48.012;10.030;2022-10-16T03:58:23;3.60;;;2.13;;
20093;SDS011;10206;48.012;10.030;2022-10-16T04:00:49;2.17;;;1.77;;
20093;SDS011;10206;48.012;10.030;2022-10-16T04:03:15;3.57;;;1.73;;
20093;SDS011;10206;48.012;10.030;2022-10-16T04:05:43;4.17;;;1.90;;
20093;SDS011;10206;48.012;10.030;2022-10-16T04:08:10;2.67;;;1.67;;
20093;SDS011;10206;48.012;10.030;2022-10-16T04:10:36;3.13;;;1.90;;
20093;SDS011;10206;48.012;10.030;2022-10-16T04:13:02;5.20;;;1.90;;
20093;SDS011;10206;48.012;10.030;2022-10-16T04:15:28;3.33;;;1.50;;
20093;SDS011;10206;48.012;10.030;2022-10-16T04:17:54;3.10;;;2.03;;
20093;SDS011;10206;48.012;10.030;2022-10-16T04:20:20;2.37;;;1.77;;
20093;SDS011;10206;48.012;10.030;2022-10-16T04:22:46;3.03;;;1.60;;
20093;SDS011;10206;48.012;10.030;2022-10-16T04:25:12;1.97;;;1.77;;
20093;SDS011;10206;48.012;10.030;2022-10-16T04:27:39;7.23;;;2.03;;
20093;SDS011;10206;48.012;10.030;2022-10-16T04:30:05;3.67;;;1.80;;
20093;SDS011;10206;48.012;10.030;2022-10-16T04:32:31;1.90;;;1.70;;
20093;SDS011;10206;48.012;10.030;2022-10-16T04:34:58;2.03;;;1.83;;
20093;SDS011;10206;48.012;10.030;2022-10-16T04:37:24;4.33;;;2.10;;
20093;SDS011;10206;48.012;10.030;2022-10-16T04:39:51;2.37;;;1.90;;
20093;SDS011;10206;48.012;10.030;2022-10-16T04:42:20;2.10;;;1.90;;
20093;SDS011;10206;48.012;10.030;2022-10-16T04:44:47;3.47;;;2.00;;
20093;SDS011;10206;48.012;10.030;2022-10-16T04:47:13;3.53;;;1.83;;
20093;SDS011;10206;48.012;10.030;2022-10-16T04:49:39;2.60;;;2.00;;
20093;SDS011;10206;48.012;10.030;2022-10-16T04:52:05;3.43;;;1.70;;
20093;SDS011;10206;48.012;10.030;2022-10-16T04:54:31;3.20;;;1.90;;
20093;SDS011;10206;48.012;10.030;2022-10-16T04:56:57;2.50;;;1.77;;
20093;SDS011;10206;48.012;10.030;2022-10-16T04:59:23;5.70;;;2.10;;
20093;SDS011;10206;48.012;10.030;2022-10-16T05:01:50;4.23;;;1.87;;
20093;SDS011;10206;48.012;10.030;2022-10-16T05:04:16;2.13;;;1.70;;
20093;SDS011;10206;48.012;10.030;2022-10-16T05:06:42;3.87;;;1.80;;
20093;SDS011;10206;48.012;10.030;2022-10-16T05:09:08;3.17;;;2.27;;
20093;SDS011;10206;48.012;10.030;2022-10-16T05:11:34;9.57;;;4.83;;
20093;SDS011;10206;48.012;10.030;2022-10-16T05:14:01;14.57;;;4.60;;
20093;SDS011;10206;48.012;10.030;2022-10-16T05:16:27;5.57;;;3.57;;
20093;SDS011;10206;48.012;10.030;2022-10-16T05:18:53;2.57;;;2.20;;
20093;SDS011;10206;48.012;10.030;2022-10-16T05:21:20;6.57;;;2.80;;
20093;SDS011;10206;48.012;10.030;2022-10-16T05:23:46;4.70;;;2.10;;
20093;SDS011;10206;48.012;10.030;2022-10-16T05:26:12;2.10;;;1.90;;
20093;SDS011;10206;48.012;10.030;2022-10-16T05:28:38;1.60;;;1.50;;
20093;SDS011;10206;48.012;10.030;2022-10-16T05:31:05;2.50;;;1.80;;
20093;SDS011;10206;48.012;10.030;2022-10-16T05:33:32;3.00;;;1.63;;
20093;SDS011;10206;48.012;10.030;2022-10-16T05:36:04;2.40;;;2.20;;
20093;SDS011;10206;48.012;10.030;2022-10-16T05:38:32;2.03;;;1.90;;
20093;SDS011;10206;48.012;10.030;2022-10-16T05:40:59;4.33;;;2.53;;
20093;SDS011;10206;48.012;10.030;2022-10-16T05:43:26;7.60;;;4.40;;
20093;SDS011;10206;48.012;10.030;2022-10-16T05:45:56;8.07;;;5.33;;
20093;SDS011;10206;48.012;10.030;2022-10-16T05:48:24;9.57;;;6.03;;
20093;SDS011;10206;48.012;10.030;2022-10-16T05:51:04;10.13;;;5.17;;
20093;SDS011;10206;48.012;10.030;2022-10-16T05:53:32;5.20;;;3.83;;
20093;SDS011;10206;48.012;10.030;2022-10-16T05:55:59;6.60;;;3.73;;
20093;SDS011;10206;48.012;10.030;2022-10-16T05:58:33;6.50;;;3.40;;
20093;SDS011;10206;48.012;10.030;2022-10-16T06:01:04;4.63;;;3.70;;
20093;SDS011;10206;48.012;10.030;2022-10-16T06:03:38;4.03;;;3.10;;
20093;SDS011;10206;48.012;10.030;2022-10-16T06:06:23;3.50;;;3.20;;
20093;SDS011;10206;48.012;10.030;2022-10-16T06:08:52;7.23;;;3.77;;
20093;SDS011;10206;48.012;10.030;2022-10-16T06:11:20;3.90;;;3.47;;
20093;SDS011;10206;48.012;10.030;2022-10-16T06:13:51;4.00;;;3.20;;
20093;SDS011;10206;48.012;10.030;2022-10-16T06:16:19;3.70;;;2.40;;
20093;SDS011;10206;48.012;10.030;2022-10-16T06:18:45;3.23;;;2.93;;
20093;SDS011;10206;48.012;10.030;2022-10-16T06:21:14;3.63;;;2.90;;
20093;SDS011;10206;48.012;10.030;2022-10-16T06:23:43;5.23;;;3.10;;
20093;SDS011;10206;48.012;10.030;2022-10-16T06:26:12;3.50;;;2.90;;
20093;SDS011;10206;48.012;10.030;2022-10-16T06:28:40;3.37;;;3.07;;
20093;SDS011;10206;48.012;10.030;2022-10-16T06:31:07;7.10;;;4.50;;
20093;SDS011;10206;48.012;10.030;2022-10-16T06:33:34;24.40;;;17.17;;
20093;SDS011;10206;48.012;10.030;2022-10-16T06:36:02;11.17;;;6.57;;
20093;SDS011;10206;48.012;10.030;2022-10-16T06:38:30;6.63;;;4.60;;
20093;SDS011;10206;48.012;10.030;2022-10-16T06:40:56;6.53;;;3.20;;
20093;SDS011;10206;48.012;10.030;2022-10-16T06:43:23;4.07;;;3.00;;
20093;SDS011;10206;48.012;10.030;2022-10-16T06:45:53;4.10;;;3.70;;
20093;SDS011;10206;48.012;10.030;2022-10-16T06:48:20;6.07;;;4.50;;
20093;SDS011;10206;48.012;10.030;2022-10-16T06:53:36;9.53;;;7.60;;
20093;SDS011;10206;48.012;10.030;2022-10-16T06:56:17;10.43;;;8.07;;
20093;SDS011;10206;48.012;10.030;2022-10-16T06:58:47;9.50;;;7.57;;
20093;SDS011;10206;48.012;10.030;2022-10-16T07:01:14;13.37;;;9.30;;
20093;SDS011;10206;48.012;10.030;2022-10-16T07:03:42;11.40;;;8.80;;
20093;SDS011;10206;48.012;10.030;2022-10-16T07:06:11;14.73;;;11.13;;
20093;SDS011;10206;48.012;10.030;2022-10-16T07:08:39;20.07;;;13.87;;
20093;SDS011;10206;48.012;10.030;2022-10-16T07:11:11;17.13;;;11.67;;
20093;SDS011;10206;48.012;10.030;2022-10-16T07:13:40;14.73;;;10.30;;
20093;SDS011;10206;48.012;10.030;2022-10-16T07:16:11;15.70;;;9.35;;
20093;SDS011;10206;48.012;10.030;2022-10-16T07:18:43;11.43;;;8.47;;
20093;SDS011;10206;48.012;10.030;2022-10-16T07:21:14;31.35;;;18.75;;
20093;SDS011;10206;48.012;10.030;2022-10-16T07:23:43;48.08;;;28.23;;
20093;SDS011;10206;48.012;10.030;2022-10-16T07:26:09;45.10;;;26.48;;
20093;SDS011;10206;48.012;10.030;2022-10-16T07:28:36;67.18;;;38.42;;
20093;SDS011;10206;48.012;10.030;2022-10-16T07:31:03;56.30;;;30.87;;
20093;SDS011;10206;48.012;10.030;2022-10-16T07:33:32;31.15;;;17.50;;
20093;SDS011;10206;48.012;10.030;2022-10-16T07:35:59;35.63;;;21.50;;
20093;SDS011;10206;48.012;10.030;2022-10-16T07:38:25;23.45;;;12.80;;
20093;SDS011;10206;48.012;10.030;2022-10-16T07:40:58;6.80;;;5.05;;
20093;SDS011;10206;48.012;10.030;2022-10-16T07:43:26;4.90;;;4.40;;
20093;SDS011;10206;48.012;10.030;2022-10-16T07:45:52;4.43;;;2.78;;
20093;SDS011;10206;48.012;10.030;2022-10-16T07:48:20;4.15;;;2.58;;
20093;SDS011;10206;48.012;10.030;2022-10-16T07:50:46;2.60;;;2.20;;
20093;SDS011;10206;48.012;10.030;2022-10-16T07:53:13;2.72;;;2.25;;
20093;SDS011;10206;48.012;10.030;2022-10-16T07:55:39;2.42;;;1.58;;
20093;SDS011;10206;48.012;10.030;2022-10-16T07:58:05;1.90;;;1.70;;
20093;SDS011;10206;48.012;10.030;2022-10-16T08:00:32;3.35;;;1.92;;
20093;SDS011;10206;48.012;10.030;2022-10-16T08:02:58;3.50;;;1.73;;
20093;SDS011;10206;48.012;10.030;2022-10-16T08:05:28;3.50;;;1.77;;
20093;SDS011;10206;48.012;10.030;2022-10-16T08:07:55;1.98;;;1.77;;
20093;SDS011;10206;48.012;10.030;2022-10-16T08:10:22;3.13;;;1.40;;
20093;SDS011;10206;48.012;10.030;2022-10-16T08:12:49;1.80;;;1.40;;
20093;SDS011;10206;48.012;10.030;2022-10-16T08:15:16;2.15;;;1.95;;
20093;SDS011;10206;48.012;10.030;2022-10-16T08:17:43;4.00;;;1.50;;
20093;SDS011;10206;48.012;10.030;2022-10-16T08:20:10;1.73;;;1.63;;
20093;SDS011;10206;48.012;10.030;2022-10-16T08:22:36;1.50;;;1.30;;
20093;SDS011;10206;48.012;10.030;2022-10-16T08:25:03;1.60;;;1.40;;
20093;SDS011;10206;48.012;10.030;2022-10-16T08:27:32;6.38;;;1.63;;
20093;SDS011;10206;48.012;10.030;2022-10-16T08:29:58;3.25;;;1.40;;
20093;SDS011;10206;48.012;10.030;2022-10-16T08:32:24;2.08;;;1.35;;
20093;SDS011;10206;48.012;10.030;2022-10-16T08:34:50;2.65;;;1.30;;
20093;SDS011;10206;48.012;10.030;2022-10-16T08:37:17;3.80;;;1.70;;
20093;SDS011;10206;48.012;10.030;2022-10-16T08:39:43;1.55;;;1.38;;
20093;SDS011;10206;48.012;10.030;2022-10-16T08:47:48;3.75;;;1.40;;
20093;SDS011;10206;48.012;10.030;2022-10-16T08:50:21;2.78;;;1.67;;
20093;SDS011;10206;48.012;10.030;2022-10-16T08:52:50;3.05;;;1.70;;
20093;SDS011;10206;48.012;10.030;2022-10-16T08:55:19;2.33;;;1.90;;
20093;SDS011;10206;48.012;10.030;2022-10-16T08:58:07;2.15;;;1.33;;
20093;SDS011;10206;48.012;10.030;2022-10-16T09:00:40;2.58;;;1.52;;
20093;SDS011;10206;48.012;10.030;2022-10-16T09:25:47;1.70;;;1.40;;
20093;SDS011;10206;48.012;10.030;2022-10-16T09:28:14;1.60;;;1.50;;
20093;SDS011;10206;48.012;10.030;2022-10-16T09:30:41;9.45;;;5.45;;
20093;SDS011;10206;48.012;10.030;2022-10-16T09:33:09;23.67;;;17.13;;
20093;SDS011;10206;48.012;10.030;2022-10-16T09:38:21;10.65;;;9.65;;
20093;SDS011;10206;48.012;10.030;2022-10-16T09:40:59;3.17;;;2.90;;
20093;SDS011;10206;48.012;10.030;2022-10-16T09:43:34;3.60;;;2.70;;
20093;SDS011;10206;48.012;10.030;2022-10-16T09:46:07;2.42;;;2.10;;
20093;SDS011;10206;48.012;10.030;2022-10-16T09:48:47;1.88;;;1.77;;
20093;SDS011;10206;48.012;10.030;2022-10-16T09:51:25;1.83;;;1.60;;
20093;SDS011;10206;48.012;10.030;2022-10-16T09:53:55;2.47;;;1.90;;
20093;SDS011;10206;48.012;10.030;2022-10-16T09:58:54;2.75;;;1.85;;
20093;SDS011;10206;48.012;10.030;2022-10-16T10:01:22;1.90;;;1.70;;
20093;SDS011;10206;48.012;10.030;2022-10-16T10:03:56;4.63;;;1.60;;
20093;SDS011;10206;48.012;10.030;2022-10-16T10:06:30;2.97;;;1.70;;
20093;SDS011;10206;48.012;10.030;2022-10-16T10:09:42;4.90;;;2.00;;
20093;SDS011;10206;48.012;10.030;2022-10-16T10:12:02;3.30;;;3.00;;
20093;SDS011;10206;48.012;10.030;2022-10-16T10:19:39;3.60;;;2.67;;
20093;SDS011;10206;48.012;10.030;2022-10-16T10:25:00;5.47;;;2.80;;
20093;SDS011;10206;48.012;10.030;2022-10-16T10:35:58;2.97;;;1.98;;
20093;SDS011;10206;48.012;10.030;2022-10-16T10:38:59;2.00;;;1.77;;
20093;SDS011;10206;48.012;10.030;2022-10-16T10:47:29;3.42;;;1.50;;
20093;SDS011;10206;48.012;10.030;2022-10-16T10:50:14;3.20;;;1.92;;
20093;SDS011;10206;48.012;10.030;2022-10-16T10:56:05;3.63;;;1.10;;
20093;SDS011;10206;48.012;10.030;2022-10-16T11:05:31;4.80;;;1.50;;
20093;SDS011;10206;48.012;10.030;2022-10-16T11:08:10;4.07;;;1.70;;
20093;SDS011;10206;48.012;10.030;2022-10-16T11:11:03;2.22;;;1.40;;
20093;SDS011;10206;48.012;10.030;2022-10-16T11:16:38;3.33;;;1.65;;
20093;SDS011;10206;48.012;10.030;2022-10-16T11:22:16;2.80;;;1.30;;
20093;SDS011;10206;48.012;10.030;2022-10-16T11:31:00;2.28;;;1.00;;
20093;SDS011;10206;48.012;10.030;2022-10-16T11:36:18;1.58;;;1.48;;
20093;SDS011;10206;48.012;10.030;2022-10-16T11:39:27;1.50;;;1.40;;
20093;SDS011;10206;48.012;10.030;2022-10-16T11:50:57;1.38;;;1.20;;
20093;SDS011;10206;48.012;10.030;2022-10-16T11:56:57;1.60;;;1.08;;
20093;SDS011;10206;48.012;10.030;2022-10-16T11:59:42;0.80;;;0.80;;
20093;SDS011;10206;48.012;10.030;2022-10-16T12:05:06;2.90;;;0.93;;
20093;SDS011;10206;48.012;10.030;2022-10-16T12:10:41;1.45;;;0.93;;
20093;SDS011;10206;48.012;10.030;2022-10-16T12:16:19;1.70;;;0.93;;
20093;SDS011;10206;48.012;10.030;2022-10-16T12:18:48;1.95;;;1.00;;
20093;SDS011;10206;48.012;10.030;2022-10-16T12:21:29;1.13;;;0.93;;
20093;SDS011;10206;48.012;10.030;2022-10-16T12:23:57;1.33;;;0.80;;
20093;SDS011;10206;48.012;10.030;2022-10-16T12:26:32;1.63;;;0.80;;
20093;SDS011;10206;48.012;10.030;2022-10-16T12:32:22;1.55;;;0.95;;
20093;SDS011;10206;48.012;10.030;2022-10-16T12:35:00;1.45;;;0.85;;
20093;SDS011;10206;48.012;10.030;2022-10-16T12:37:32;0.82;;;0.80;;
20093;SDS011;10206;48.012;10.030;2022-10-16T12:40:15;0.95;;;0.85;;
20093;SDS011;10206;48.012;10.030;2022-10-16T12:42:54;1.02;;;0.85;;
20093;SDS011;10206;48.012;10.030;2022-10-16T12:45:30;1.20;;;0.98;;
20093;SDS011;10206;48.012;10.030;2022-10-16T12:48:02;0.77;;;0.77;;
20093;SDS011;10206;48.012;10.030;2022-10-16T12:50:44;1.83;;;1.00;;
20093;SDS011;10206;48.012;10.030;2022-10-16T12:58:41;2.40;;;1.13;;
20093;SDS011;10206;48.012;10.030;2022-10-16T13:04:45;1.60;;;1.00;;
20093;SDS011;10206;48.012;10.030;2022-10-16T13:11:12;1.58;;;0.98;;
20093;SDS011;10206;48.012;10.030;2022-10-16T13:19:53;1.13;;;1.02;;
20093;SDS011;10206;48.012;10.030;2022-10-16T13:25:58;1.17;;;1.00;;
20093;SDS011;10206;48.012;10.030;2022-10-16T13:28:29;3.85;;;1.05;;
20093;SDS011;10206;48.012;10.030;2022-10-16T13:30:58;3.45;;;1.10;;
20093;SDS011;10206;48.012;10.030;2022-10-16T13:33:42;3.95;;;1.10;;
20093;SDS011;10206;48.012;10.030;2022-10-16T13:36:23;3.45;;;1.13;;
20093;SDS011;10206;48.012;10.030;2022-10-16T13:38:59;1.40;;;1.30;;
20093;SDS011;10206;48.012;10.030;2022-10-16T13:41:36;1.00;;;1.00;;
20093;SDS011;10206;48.012;10.030;2022-10-16T13:44:03;1.23;;;1.13;;
20093;SDS011;10206;48.012;10.030;2022-10-16T13:46:33;1.95;;;0.95;;
20093;SDS011;10206;48.012;10.030;2022-10-16T13:49:03;1.45;;;1.20;;
20093;SDS011;10206;48.012;10.030;2022-10-16T13:51:37;1.73;;;1.08;;
20093;SDS011;10206;48.012;10.030;2022-10-16T13:54:02;4.53;;;1.10;;
20093;SDS011;10206;48.012;10.030;2022-10-16T13:56:29;1.20;;;1.10;;
20093;SDS011;10206;48.012;10.030;2022-10-16T13:58:58;1.65;;;0.98;;
20093;SDS011;10206;48.012;10.030;2022-10-16T14:01:47;1.60;;;1.10;;
20093;SDS011;10206;48.012;10.030;2022-10-16T14:04:14;2.42;;;1.08;;
20093;SDS011;10206;48.012;10.030;2022-10-16T14:06:41;1.40;;;1.30;;
20093;SDS011;10206;48.012;10.030;2022-10-16T14:09:23;1.23;;;1.10;;
20093;SDS011;10206;48.012;10.030;2022-10-16T14:11:54;2.50;;;1.45;;
20093;SDS011;10206;48.012;10.030;2022-10-16T14:14:26;1.50;;;1.05;;
20093;SDS011;10206;48.012;10.030;2022-10-16T14:17:04;1.92;;;1.25;;
20093;SDS011;10206;48.012;10.030;2022-10-16T14:19:30;1.23;;;1.10;;
20093;SDS011;10206;48.012;10.030;2022-10-16T14:21:57;1.30;;;1.20;;
20093;SDS011;10206;48.012;10.030;2022-10-16T14:26:55;2.45;;;1.10;;
20093;SDS011;10206;48.012;10.030;2022-10-16T14:29:21;5.32;;;1.30;;
20093;SDS011;10206;48.012;10.030;2022-10-16T14:31:54;1.67;;;1.10;;
20093;SDS011;10206;48.012;10.030;2022-10-16T14:34:38;4.13;;;1.40;;
20093;SDS011;10206;48.012;10.030;2022-10-16T14:37:06;1.27;;;1.17;;
20093;SDS011;10206;48.012;10.030;2022-10-16T14:39:49;2.47;;;1.40;;
20093;SDS011;10206;48.012;10.030;2022-10-16T14:42:16;1.88;;;1.20;;
20093;SDS011;10206;48.012;10.030;2022-10-16T14:44:45;2.17;;;1.20;;
20093;SDS011;10206;48.012;10.030;2022-10-16T14:47:13;1.98;;;1.20;;
20093;SDS011;10206;48.012;10.030;2022-10-16T14:49:42;2.53;;;1.45;;
20093;SDS011;10206;48.012;10.030;2022-10-16T14:52:11;2.95;;;1.30;;
20093;SDS011;10206;48.012;10.030;2022-10-16T14:54:37;2.35;;;1.40;;
20093;SDS011;10206;48.012;10.030;2022-10-16T14:57:04;4.18;;;1.25;;
20093;SDS011;10206;48.012;10.030;2022-10-16T14:59:37;2.15;;;1.05;;
20093;SDS011;10206;48.012;10.030;2022-10-16T15:02:54;4.63;;;1.52;;
20093;SDS011;10206;48.012;10.030;2022-10-16T15:04:57;1.33;;;1.20;;
20093;SDS011;10206;48.012;10.030;2022-10-16T15:07:48;3.80;;;1.40;;
20093;SDS011;10206;48.012;10.030;2022-10-16T15:10:15;1.20;;;1.10;;
20093;SDS011;10206;48.012;10.030;2022-10-16T15:12:42;1.80;;;1.10;;
20093;SDS011;10206;48.012;10.030;2022-10-16T15:15:15;2.05;;;1.20;;
20093;SDS011;10206;48.012;10.030;2022-10-16T15:17:47;3.92;;;1.23;;
20093;SDS011;10206;48.012;10.030;2022-10-16T15:20:20;2.90;;;1.40;;
20093;SDS011;10206;48.012;10.030;2022-10-16T15:22:48;2.45;;;1.30;;
20093;SDS011;10206;48.012;10.030;2022-10-16T15:25:27;3.05;;;1.20;;
20093;SDS011;10206;48.012;10.030;2022-10-16T15:28:07;4.85;;;1.60;;
20093;SDS011;10206;48.012;10.030;2022-10-16T15:30:35;1.70;;;1.35;;
20093;SDS011;10206;48.012;10.030;2022-10-16T15:33:02;3.60;;;1.08;;
20093;SDS011;10206;48.012;10.030;2022-10-16T15:35:30;4.93;;;1.25;;
20093;SDS011;10206;48.012;10.030;2022-10-16T15:37:56;1.73;;;1.30;;
20093;SDS011;10206;48.012;10.030;2022-10-16T15:40:22;3.45;;;1.20;;
20093;SDS011;10206;48.012;10.030;2022-10-16T15:42:48;2.47;;;1.25;;
20093;SDS011;10206;48.012;10.030;2022-10-16T15:45:15;3.60;;;1.58;;
20093;SDS011;10206;48.012;10.030;2022-10-16T15:47:41;3.63;;;1.23;;
20093;SDS011;10206;48.012;10.030;2022-10-16T15:50:09;2.45;;;1.20;;
20093;SDS011;10206;48.012;10.030;2022-10-16T15:52:37;3.97;;;1.10;;
20093;SDS011;10206;48.012;10.030;2022-10-16T15:55:05;1.92;;;1.25;;
20093;SDS011;10206;48.012;10.030;2022-10-16T15:57:36;2.72;;;1.27;;
20093;SDS011;10206;48.012;10.030;2022-10-16T16:00:09;2.00;;;1.40;;
20093;SDS011;10206;48.012;10.030;2022-10-16T16:02:38;3.17;;;1.42;;
20093;SDS011;10206;48.012;10.030;2022-10-16T16:05:05;3.80;;;1.48;;
20093;SDS011;10206;48.012;10.030;2022-10-16T16:07:36;2.42;;;1.40;;
20093;SDS011;10206;48.012;10.030;2022-10-16T16:10:04;6.45;;;1.52;;
20093;SDS011;10206;48.012;10.030;2022-10-16T16:12:33;3.50;;;1.70;;
20093;SDS011;10206;48.012;10.030;2022-10-16T16:14:59;8.63;;;2.70;;
20093;SDS011;10206;48.012;10.030;2022-10-16T16:17:25;9.82;;;3.72;;
20093;SDS011;10206;48.012;10.030;2022-10-16T16:19:50;8.75;;;3.83;;
20093;SDS011;10206;48.012;10.030;2022-10-16T16:22:17;6.75;;;4.15;;
20093;SDS011;10206;48.012;10.030;2022-10-16T16:24:43;12.25;;;4.68;;
20093;SDS011;10206;48.012;10.030;2022-10-16T16:27:09;11.50;;;4.82;;
20093;SDS011;10206;48.012;10.030;2022-10-16T16:29:35;18.30;;;7.15;;
20093;SDS011;10206;48.012;10.030;2022-10-16T16:32:01;9.52;;;5.88;;
20093;SDS011;10206;48.012;10.030;2022-10-16T16:34:27;10.43;;;6.05;;
20093;SDS011;10206;48.012;10.030;2022-10-16T16:36:54;29.17;;;16.80;;
20093;SDS011;10206;48.012;10.030;2022-10-16T16:39:20;64.40;;;37.92;;
20093;SDS011;10206;48.012;10.030;2022-10-16T16:41:47;66.32;;;39.03;;
20093;SDS011;10206;48.012;10.030;2022-10-16T16:44:13;68.03;;;39.67;;
20093;SDS011;10206;48.012;10.030;2022-10-16T16:46:41;46.60;;;28.27;;
20093;SDS011;10206;48.012;10.030;2022-10-16T16:49:10;23.25;;;14.88;;
20093;SDS011;10206;48.012;10.030;2022-10-16T16:51:37;14.77;;;9.50;;
20093;SDS011;10206;48.012;10.030;2022-10-16T16:54:04;19.80;;;12.48;;
20093;SDS011;10206;48.012;10.030;2022-10-16T16:56:32;32.95;;;19.52;;
20093;SDS011;10206;48.012;10.030;2022-10-16T16:58:59;46.20;;;25.95;;
20093;SDS011;10206;48.012;10.030;2022-10-16T17:01:25;50.80;;;33.22;;
20093;SDS011;10206;48.012;10.030;2022-10-16T17:03:54;64.43;;;40.83;;
20093;SDS011;10206;48.012;10.030;2022-10-16T17:06:22;51.05;;;31.40;;
20093;SDS011;10206;48.012;10.030;2022-10-16T17:08:50;47.47;;;28.65;;
20093;SDS011;10206;48.012;10.030;2022-10-16T17:11:18;45.58;;;29.63;;
20093;SDS011;10206;48.012;10.030;2022-10-16T17:13:49;41.60;;;26.40;;